Time;durP1;ratioP1;P1;durP2;ratioP2;P2;SDS_P1;SDS_P2;PMS_P1;PMS_P2;Temp;Humidity;BMP_temperature;BMP_pressure;BME280_temperature;BME280_humidity;BME280_pressure;Samples;Min_cycle;Max_cycle;Signal;HPM_P1;HPM_P2
2023/12/03 00:01:45;;;;;;;33.70;16.70;;;;;;;-1.96;87.72;99370.07;103498;1256;107472;-69
2023/12/03 00:04:12;;;;;;;31.90;17.30;;;;;;;-1.92;87.85;99370.77;103454;1252;96438;-68
2023/12/03 00:06:39;;;;;;;35.30;18.10;;;;;;;-1.91;87.67;99366.16;103895;1255;137529;-69
2023/12/03 00:09:09;;;;;;;32.60;18.30;;;;;;;-1.87;87.48;99367.54;103569;1251;96530;-68
2023/12/03 00:11:36;;;;;;;32.90;18.20;;;;;;;-1.87;87.50;99369.41;101941;1253;1004959;-68
2023/12/03 00:14:03;;;;;;;35.30;18.90;;;;;;;-1.89;87.20;99372.98;102759;1251;1016216;-69
2023/12/03 00:16:29;;;;;;;31.50;17.50;;;;;;;-1.93;87.74;99375.36;102759;1254;1003590;-68
2023/12/03 00:18:56;;;;;;;31.40;17.50;;;;;;;-1.98;87.85;99376.68;103267;1252;138359;-68
2023/12/03 00:21:23;;;;;;;32.70;16.90;;;;;;;-2.00;87.70;99380.93;103243;1252;96505;-68
2023/12/03 00:23:50;;;;;;;36.20;18.00;;;;;;;-2.00;87.74;99381.95;103291;1252;138009;-68
2023/12/03 00:26:17;;;;;;;32.70;17.70;;;;;;;-1.97;87.85;99382.66;103390;1252;106958;-68
2023/12/03 00:28:45;;;;;;;35.20;19.10;;;;;;;-1.94;87.85;99386.09;103433;1252;97311;-70
2023/12/03 00:31:12;;;;;;;35.60;19.10;;;;;;;-1.93;87.76;99388.13;103395;1251;137172;-68
2023/12/03 00:33:39;;;;;;;35.20;18.90;;;;;;;-1.90;87.95;99387.12;103499;1255;96506;-68
2023/12/03 00:36:08;;;;;;;38.40;19.80;;;;;;;-1.90;87.89;99390.36;103341;1252;137720;-68
2023/12/03 00:38:35;;;;;;;34.90;19.70;;;;;;;-1.93;87.92;99395.97;103539;1253;107622;-69
2023/12/03 00:41:02;;;;;;;37.10;19.90;;;;;;;-1.96;87.82;99395.29;102546;1254;1003806;-69
2023/12/03 00:43:29;;;;;;;34.70;18.60;;;;;;;-1.98;87.84;99399.35;102715;1252;1003202;-69
2023/12/03 00:45:57;;;;;;;31.00;17.20;;;;;;;-2.01;87.71;99400.17;102689;1252;1003222;-69
2023/12/03 00:48:24;;;;;;;31.10;17.10;;;;;;;-2.04;87.79;99400.85;104529;1254;138603;-67
2023/12/03 00:50:51;;;;;;;32.80;18.20;;;;;;;-2.02;87.84;99403.58;103436;1251;108223;-68
2023/12/03 00:53:18;;;;;;;32.20;16.60;;;;;;;-2.00;88.13;99408.70;103420;1253;138460;-68
2023/12/03 00:55:45;;;;;;;30.30;17.40;;;;;;;-1.94;88.27;99411.64;103344;1253;107852;-69
2023/12/03 00:58:12;;;;;;;34.60;18.50;;;;;;;-1.90;88.11;99414.73;103442;1255;96461;-68
2023/12/03 01:00:39;;;;;;;31.50;18.30;;;;;;;-1.88;87.91;99414.39;103290;1255;137344;-69
2023/12/03 01:03:06;;;;;;;35.40;18.30;;;;;;;-1.90;88.18;99423.07;103406;1255;107373;-69
2023/12/03 01:05:33;;;;;;;37.20;18.70;;;;;;;-1.92;87.74;99423.23;102613;1253;1003078;-69
2023/12/03 01:08:00;;;;;;;35.80;18.60;;;;;;;-1.94;87.95;99430.05;103494;1253;108175;-70
2023/12/03 01:10:27;;;;;;;34.70;18.10;;;;;;;-1.97;87.88;99439.21;103542;1253;96465;-70
2023/12/03 01:12:54;;;;;;;30.70;16.40;;;;;;;-1.97;88.05;99449.27;103169;1252;138093;-70
2023/12/03 01:15:21;;;;;;;29.50;14.70;;;;;;;-1.98;87.91;99453.33;103420;1257;108441;-70
2023/12/03 01:17:48;;;;;;;26.30;14.10;;;;;;;-1.96;88.28;99457.80;103362;1252;138166;-70
2023/12/03 01:20:15;;;;;;;26.50;15.60;;;;;;;-1.90;88.37;99463.11;103455;1252;109081;-70
2023/12/03 01:22:42;;;;;;;30.70;16.30;;;;;;;-1.82;88.39;99459.73;102487;1252;1003728;-70
2023/12/03 01:25:10;;;;;;;30.70;15.80;;;;;;;-1.77;88.21;99458.75;103267;1257;137662;-69
2023/12/03 01:27:37;;;;;;;32.30;16.40;;;;;;;-1.75;87.75;99456.38;103662;1252;107735;-69
2023/12/03 01:30:05;;;;;;;27.90;16.00;;;;;;;-1.73;87.79;99463.20;103302;1252;137699;-69
2023/12/03 01:32:32;;;;;;;28.50;17.60;;;;;;;-1.72;88.03;99466.09;103367;1254;108773;-70
2023/12/03 01:34:59;;;;;;;30.80;17.40;;;;;;;-1.70;87.83;99467.30;103397;1256;96457;-69
2023/12/03 01:37:26;;;;;;;28.00;16.30;;;;;;;-1.73;87.80;99465.58;103434;1255;109883;-70
2023/12/03 01:39:53;;;;;;;27.30;15.80;;;;;;;-1.71;88.03;99467.12;103362;1252;107778;-69
2023/12/03 01:42:20;;;;;;;27.40;14.60;;;;;;;-1.72;88.07;99468.14;103315;1255;138235;-69
2023/12/03 01:44:47;;;;;;;27.70;14.50;;;;;;;-1.73;87.76;99464.55;103427;1255;108417;-70
2023/12/03 01:47:16;;;;;;;25.90;14.40;;;;;;;-1.69;87.94;99469.17;103329;1253;138555;-70
2023/12/03 01:49:43;;;;;;;28.20;15.00;;;;;;;-1.66;87.92;99473.95;103486;1254;110459;-70
2023/12/03 01:52:10;;;;;;;27.40;14.20;;;;;;;-1.60;88.04;99471.77;103422;1252;107837;-70
2023/12/03 01:54:41;;;;;;;27.40;14.80;;;;;;;-1.55;88.08;99472.48;103391;1253;138993;-69
2023/12/03 01:57:09;;;;;;;26.60;15.10;;;;;;;-1.48;87.89;99473.17;103443;1255;107596;-69
2023/12/03 01:59:37;;;;;;;28.20;15.80;;;;;;;-1.44;87.64;99474.04;103386;1255;137635;-69
2023/12/03 02:02:04;;;;;;;28.50;16.70;;;;;;;-1.43;87.54;99479.86;102862;1253;1003302;-70
2023/12/03 02:04:31;;;;;;;31.30;17.00;;;;;;;-1.44;87.50;99482.90;103547;1256;1002977;-68
2023/12/03 02:06:59;;;;;;;30.40;16.90;;;;;;;-1.47;87.17;99478.46;103468;1251;137658;-68
2023/12/03 02:09:27;;;;;;;28.90;17.10;;;;;;;-1.51;87.28;99478.63;102680;1255;1003632;-70
2023/12/03 02:11:54;;;;;;;29.40;16.30;;;;;;;-1.54;87.17;99481.52;103370;1251;139116;-70
2023/12/03 02:14:21;;;;;;;31.00;16.10;;;;;;;-1.55;87.23;99483.73;102713;1252;1003399;-70
2023/12/03 02:16:48;;;;;;;28.20;16.00;;;;;;;-1.54;87.31;99489.36;103453;1253;108172;-70
2023/12/03 02:19:16;;;;;;;29.40;16.90;;;;;;;-1.55;87.16;99494.13;101811;1255;1003082;-70
2023/12/03 02:21:43;;;;;;;29.80;17.00;;;;;;;-1.55;87.14;99496.52;103519;1253;107977;-68
2023/12/03 02:24:10;;;;;;;30.70;17.10;;;;;;;-1.56;87.23;99500.95;103392;1255;138704;-70
2023/12/03 02:26:37;;;;;;;33.00;17.90;;;;;;;-1.58;87.29;99499.40;103451;1251;109201;-70
2023/12/03 02:29:04;;;;;;;31.20;17.20;;;;;;;-1.58;87.14;99505.02;102633;1253;1003432;-69
2023/12/03 02:31:31;;;;;;;33.90;18.40;;;;;;;-1.58;87.41;99506.91;102694;1252;1003223;-70
2023/12/03 02:34:06;;;;;;;31.90;18.50;;;;;;;-1.59;87.40;99517.98;103535;1252;107594;-70
2023/12/03 02:36:33;;;;;;;31.80;18.20;;;;;;;-1.57;87.65;99520.71;103470;1252;139387;-69
2023/12/03 02:39:00;;;;;;;34.80;18.90;;;;;;;-1.53;87.63;99520.56;101886;1255;1003520;-69
2023/12/03 02:41:27;;;;;;;33.70;19.30;;;;;;;-1.47;87.78;99527.05;103340;1252;138511;-69
2023/12/03 02:43:54;;;;;;;32.80;18.70;;;;;;;-1.46;87.38;99528.77;103418;1252;96438;-70
2023/12/03 02:46:21;;;;;;;32.20;17.70;;;;;;;-1.44;87.52;99535.42;103413;1252;109254;-70
2023/12/03 02:48:48;;;;;;;36.60;19.70;;;;;;;-1.45;87.30;99534.23;103278;1253;138338;-69
2023/12/03 02:51:16;;;;;;;33.20;20.00;;;;;;;-1.40;87.41;99542.80;104303;1252;110675;-69
2023/12/03 02:53:43;;;;;;;33.70;19.70;;;;;;;-1.36;87.26;99549.46;103407;1251;137466;-69
2023/12/03 02:56:12;;;;;;;38.80;21.50;;;;;;;-1.30;87.67;99551.35;103533;1251;96321;-70
2023/12/03 02:58:39;;;;;;;39.20;22.40;;;;;;;-1.27;87.37;99556.98;103489;1254;108628;-70
2023/12/03 03:01:37;;;;;;;39.50;22.80;;;;;;;-1.28;87.07;99553.91;104057;1248;138107;31
2023/12/03 03:04:17;;;;;;;40.30;22.90;;;;;;;-1.29;86.88;99561.59;102813;1254;1003642;-70
2023/12/03 03:06:44;;;;;;;35.70;21.10;;;;;;;-1.34;87.17;99564.64;103088;1254;137682;-69
2023/12/03 03:09:11;;;;;;;34.50;19.50;;;;;;;-1.38;86.85;99570.26;103300;1256;97082;-69
2023/12/03 03:11:39;;;;;;;35.50;20.90;;;;;;;-1.39;87.01;99571.44;103250;1259;138251;-70
2023/12/03 03:14:06;;;;;;;35.80;20.70;;;;;;;-1.40;86.88;99583.38;102560;1260;1003115;-71
2023/12/03 03:16:34;;;;;;;35.80;20.80;;;;;;;-1.38;86.83;99588.67;103355;1258;109968;-69
2023/12/03 03:19:01;;;;;;;36.90;21.50;;;;;;;-1.39;86.99;99596.17;103157;1259;137642;-71
2023/12/03 03:21:28;;;;;;;35.40;21.90;;;;;;;-1.38;86.92;99602.83;102532;1254;1003043;-70
2023/12/03 03:23:55;;;;;;;35.70;22.40;;;;;;;-1.38;86.70;99607.77;102480;1253;1002924;-70
2023/12/03 03:26:22;;;;;;;40.90;23.40;;;;;;;-1.39;86.67;99608.11;102568;1259;1016046;-70
2023/12/03 03:28:49;;;;;;;38.60;23.60;;;;;;;-1.44;86.62;99608.91;102608;1258;1002848;-70
2023/12/03 03:31:15;;;;;;;41.60;22.90;;;;;;;-1.50;86.82;99612.97;103249;1259;137572;-70
2023/12/03 03:33:42;;;;;;;36.70;22.00;;;;;;;-1.54;86.78;99619.61;103258;1260;96505;-70
2023/12/03 03:36:13;;;;;;;39.70;21.20;;;;;;;-1.56;86.84;99619.25;102377;1254;1002926;-71
2023/12/03 03:38:40;;;;;;;35.00;20.30;;;;;;;-1.60;87.22;99625.02;103396;1255;96442;-71
2023/12/03 03:41:08;;;;;;;33.60;19.90;;;;;;;-1.60;87.25;99627.76;102495;1254;1005942;-70
2023/12/03 03:43:35;;;;;;;31.40;18.80;;;;;;;-1.58;87.21;99631.86;103523;1260;107683;-71
2023/12/03 03:46:02;;;;;;;36.20;20.60;;;;;;;-1.54;87.32;99627.95;103327;1254;96631;-71
2023/12/03 03:48:29;;;;;;;36.40;21.30;;;;;;;-1.46;87.76;99624.09;103251;1260;137744;-70
2023/12/03 03:50:56;;;;;;;33.10;19.50;;;;;;;-1.41;87.55;99623.27;102538;1267;1003231;-70
2023/12/03 03:53:23;;;;;;;37.90;21.30;;;;;;;-1.42;87.32;99624.80;103261;1254;138140;-70
2023/12/03 03:55:50;;;;;;;36.50;20.90;;;;;;;-1.42;87.05;99625.98;103306;1258;108115;-70
2023/12/03 03:58:17;;;;;;;39.70;21.80;;;;;;;-1.46;86.97;99625.27;103437;1255;96459;-70
2023/12/03 04:00:44;;;;;;;35.80;20.50;;;;;;;-1.50;87.03;99630.88;103191;1255;137481;-69
2023/12/03 04:03:11;;;;;;;32.30;19.40;;;;;;;-1.53;87.12;99636.83;103340;1256;96457;-70
2023/12/03 04:05:38;;;;;;;35.50;18.80;;;;;;;-1.56;87.05;99639.53;103293;1254;138255;-70
2023/12/03 04:08:06;;;;;;;35.50;19.00;;;;;;;-1.57;87.21;99640.73;103322;1253;107764;-69
2023/12/03 04:10:33;;;;;;;32.70;17.50;;;;;;;-1.55;87.53;99640.40;103759;1257;96985;-70
2023/12/03 04:13:00;;;;;;;33.80;19.60;;;;;;;-1.50;87.22;99637.52;103289;1257;137742;-70
2023/12/03 04:15:27;;;;;;;32.70;18.90;;;;;;;-1.45;87.19;99635.16;102524;1254;1002965;-71
2023/12/03 04:17:54;;;;;;;33.40;19.50;;;;;;;-1.44;87.12;99635.16;103230;1254;138172;-70
2023/12/03 04:20:21;;;;;;;36.40;20.60;;;;;;;-1.44;87.11;99646.92;103315;1260;108369;-70
2023/12/03 04:22:50;;;;;;;37.20;20.60;;;;;;;-1.43;86.98;99652.23;103303;1260;96525;-70
2023/12/03 04:25:17;;;;;;;38.30;21.00;;;;;;;-1.42;87.28;99654.64;103231;1259;137179;-71
2023/12/03 04:27:44;;;;;;;33.30;20.20;;;;;;;-1.40;87.13;99655.17;103285;1260;96530;-70
2023/12/03 04:30:13;;;;;;;32.40;19.30;;;;;;;-1.40;87.23;99660.28;103206;1254;137516;-71
2023/12/03 04:32:40;;;;;;;30.30;17.70;;;;;;;-1.41;87.08;99664.04;103505;1255;109127;-71
2023/12/03 04:35:08;;;;;;;33.60;17.90;;;;;;;-1.43;86.95;99667.77;103226;1255;138399;-71
2023/12/03 04:37:35;;;;;;;34.20;18.10;;;;;;;-1.42;86.93;99666.41;103364;1254;1003046;-71
2023/12/03 04:40:03;;;;;;;34.80;18.50;;;;;;;-1.41;86.98;99667.44;103331;1259;96515;-71
2023/12/03 04:42:30;;;;;;;31.20;18.20;;;;;;;-1.36;86.95;99666.61;102442;1254;1004961;-71
2023/12/03 04:44:56;;;;;;;35.00;19.00;;;;;;;-1.35;86.79;99662.86;102507;1255;1003161;-72
2023/12/03 04:47:23;;;;;;;38.30;22.10;;;;;;;-1.26;87.13;99665.98;101718;1254;1003667;-70
2023/12/03 04:49:50;;;;;;;37.10;22.00;;;;;;;-1.22;86.81;99666.87;103217;1259;108044;-70
2023/12/03 04:52:17;;;;;;;36.30;20.60;;;;;;;-1.23;86.72;99669.94;103312;1254;96613;-70
2023/12/03 04:54:44;;;;;;;38.50;21.60;;;;;;;-1.26;86.47;99674.87;103194;1254;137266;-70
2023/12/03 04:57:11;;;;;;;35.60;21.60;;;;;;;-1.29;86.45;99684.73;103240;1260;108153;-70
2023/12/03 04:59:38;;;;;;;37.90;20.80;;;;;;;-1.36;86.30;99686.38;103170;1254;137988;-72
2023/12/03 05:02:05;;;;;;;39.00;21.10;;;;;;;-1.37;86.59;99690.65;103262;1254;109097;-71
2023/12/03 05:04:32;;;;;;;38.40;20.80;;;;;;;-1.37;86.62;99697.80;102755;1255;1004937;-71
2023/12/03 05:06:59;;;;;;;38.40;19.50;;;;;;;-1.39;86.61;99698.31;102418;1254;1003728;-71
2023/12/03 05:09:26;;;;;;;38.10;20.90;;;;;;;-1.38;86.96;99706.34;103266;1257;107411;-70
2023/12/03 05:11:53;;;;;;;35.80;19.10;;;;;;;-1.36;87.01;99706.17;103129;1257;138683;-70
2023/12/03 05:14:20;;;;;;;33.40;18.00;;;;;;;-1.35;87.13;99707.72;103315;1254;106927;-70
2023/12/03 05:16:47;;;;;;;37.10;19.70;;;;;;;-1.33;86.75;99714.89;102570;1254;1003035;-71
2023/12/03 05:19:14;;;;;;;35.70;19.90;;;;;;;-1.31;87.04;99714.23;103143;1260;138131;-70
2023/12/03 05:21:41;;;;;;;40.40;21.40;;;;;;;-1.23;87.00;99720.61;103237;1254;108254;-70
2023/12/03 05:24:08;;;;;;;44.40;23.40;;;;;;;-1.18;87.01;99723.17;103265;1254;137470;-71
2023/12/03 05:26:35;;;;;;;40.50;22.40;;;;;;;-1.11;86.98;99726.63;103353;1260;107562;-70
2023/12/03 05:29:02;;;;;;;43.80;23.50;;;;;;;-1.06;86.94;99727.52;103239;1257;137650;-69
2023/12/03 05:31:29;;;;;;;41.60;22.80;;;;;;;-1.04;86.89;99731.64;103318;1260;110563;-70
2023/12/03 05:33:56;;;;;;;42.30;22.80;;;;;;;-1.00;86.88;99735.07;103268;1254;107685;-70
2023/12/03 05:36:24;;;;;;;40.80;21.80;;;;;;;-1.03;86.69;99737.10;103217;1258;138094;-70
2023/12/03 05:38:52;;;;;;;41.60;21.40;;;;;;;-1.08;86.64;99735.54;103302;1259;108087;-70
2023/12/03 05:41:19;;;;;;;36.50;20.00;;;;;;;-1.10;86.57;99739.94;103173;1254;138326;-71
2023/12/03 05:43:46;;;;;;;39.00;20.80;;;;;;;-1.11;86.50;99742.33;103348;1254;110144;-70
2023/12/03 05:46:13;;;;;;;42.20;21.10;;;;;;;-1.09;86.77;99744.55;103310;1255;108749;-70
2023/12/03 05:48:40;;;;;;;40.50;21.70;;;;;;;-1.06;86.81;99754.84;103237;1254;138192;-70
2023/12/03 05:51:12;;;;;;;41.10;22.50;;;;;;;-0.98;86.72;99758.11;103399;1254;108204;-70
2023/12/03 05:53:39;;;;;;;46.50;23.70;;;;;;;-0.93;86.78;99761.90;103254;1254;138173;-70
2023/12/03 05:56:07;;;;;;;46.50;25.10;;;;;;;-0.89;86.70;99769.80;103341;1259;109168;-71
2023/12/03 05:58:34;;;;;;;43.60;24.10;;;;;;;-0.90;86.25;99773.86;101854;1259;1003310;-70
2023/12/03 06:01:01;;;;;;;47.30;25.10;;;;;;;-0.92;86.14;99778.45;102491;1254;1002931;-72
2023/12/03 06:03:28;;;;;;;43.50;24.70;;;;;;;-0.92;86.37;99782.04;103270;1257;107741;-71
2023/12/03 06:05:55;;;;;;;50.20;27.00;;;;;;;-0.95;86.07;99779.80;103214;1260;137482;-72
2023/12/03 06:08:22;;;;;;;49.70;25.20;;;;;;;-0.99;86.02;99780.98;103313;1254;110525;-71
2023/12/03 06:10:49;;;;;;;45.30;23.90;;;;;;;-1.06;85.95;99781.96;102451;1259;1003761;-71
2023/12/03 06:13:16;;;;;;;46.90;24.60;;;;;;;-1.10;86.08;99781.58;102457;1259;1003378;-72
2023/12/03 06:15:44;;;;;;;45.90;24.70;;;;;;;-1.12;85.94;99784.30;103323;1258;108539;-72
2023/12/03 06:18:12;;;;;;;47.10;23.90;;;;;;;-1.11;86.21;99784.46;102453;1254;1003646;-72
2023/12/03 06:20:39;;;;;;;46.10;25.20;;;;;;;-1.11;86.17;99789.59;104391;1254;110652;-71
2023/12/03 06:23:06;;;;;;;49.30;26.40;;;;;;;-1.10;86.16;99793.50;103198;1260;138386;-70
2023/12/03 06:25:33;;;;;;;51.60;27.30;;;;;;;-1.07;86.48;99797.82;103291;1258;96341;-70
2023/12/03 06:27:59;;;;;;;47.50;26.00;;;;;;;-1.01;86.49;99803.50;103279;1254;107567;-70
2023/12/03 06:30:26;;;;;;;52.60;27.00;;;;;;;-1.00;86.33;99805.04;103265;1254;137458;-72
2023/12/03 06:32:53;;;;;;;51.90;26.40;;;;;;;-1.05;86.21;99804.83;103329;1254;110218;-71
2023/12/03 06:35:20;;;;;;;47.80;24.30;;;;;;;-1.08;86.39;99804.46;103188;1259;138366;-71
2023/12/03 06:37:47;;;;;;;43.10;23.50;;;;;;;-1.06;86.43;99808.08;103272;1257;97046;-71
2023/12/03 06:40:16;;;;;;;44.50;22.90;;;;;;;-1.07;86.17;99812.50;103282;1254;107233;-71
2023/12/03 06:42:42;;;;;;;47.20;24.10;;;;;;;-1.02;86.36;99816.96;103414;1256;138691;-71
2023/12/03 06:45:12;;;;;;;43.80;23.90;;;;;;;-0.96;86.65;99813.92;103344;1254;109798;-71
2023/12/03 06:47:39;;;;;;;46.90;24.60;;;;;;;-0.92;86.50;99818.56;103302;1254;138674;-71
2023/12/03 06:50:07;;;;;;;49.60;25.90;;;;;;;-0.92;86.37;99821.98;102517;1255;1003219;-71
2023/12/03 06:52:34;;;;;;;54.80;27.20;;;;;;;-0.94;86.23;99824.35;102880;1254;1003519;-69
2023/12/03 06:55:01;;;;;;;50.50;27.10;;;;;;;-0.99;86.16;99828.77;103194;1259;137691;-70
2023/12/03 06:57:28;;;;;;;51.00;25.90;;;;;;;-1.01;86.45;99832.67;102571;1259;1003068;-71
2023/12/03 06:59:55;;;;;;;50.60;26.70;;;;;;;-0.99;86.56;99837.80;103089;1254;138369;-71
2023/12/03 07:02:22;;;;;;;52.20;26.90;;;;;;;-0.99;86.67;99840.20;103245;1257;96459;-68
2023/12/03 07:04:49;;;;;;;55.00;28.00;;;;;;;-0.99;86.56;99838.31;102254;1257;1003066;-69
2023/12/03 07:07:16;;;;;;;50.60;26.10;;;;;;;-0.97;86.87;99841.73;102887;1256;138425;-69
2023/12/03 07:09:43;;;;;;;54.60;26.60;;;;;;;-0.94;86.67;99847.22;103277;1258;110664;-70
2023/12/03 07:12:10;;;;;;;44.40;24.40;;;;;;;-0.91;86.74;99853.72;102966;1256;139396;-70
2023/12/03 07:14:38;;;;;;;46.20;24.20;;;;;;;-0.88;86.62;99852.08;103162;1256;96350;-69
2023/12/03 07:17:06;;;;;;;45.00;23.50;;;;;;;-0.87;86.52;99856.16;103055;1260;138819;-68
2023/12/03 07:19:33;;;;;;;47.20;24.40;;;;;;;-0.81;86.64;99856.88;103045;1260;96395;-66
2023/12/03 07:22:00;;;;;;;45.20;24.00;;;;;;;-0.77;86.45;99856.90;102994;1256;109567;-67
2023/12/03 07:24:28;;;;;;;47.90;25.20;;;;;;;-0.72;86.43;99854.23;103318;1260;137857;-66
2023/12/03 07:26:55;;;;;;;50.10;25.80;;;;;;;-0.72;86.12;99851.15;103049;1260;96479;-68
2023/12/03 07:29:24;;;;;;;49.20;26.90;;;;;;;-0.71;86.01;99856.80;102187;1260;1003391;-66
2023/12/03 07:31:51;;;;;;;49.80;26.40;;;;;;;-0.74;85.93;99857.45;103038;1257;96470;-67
2023/12/03 07:34:18;;;;;;;46.10;25.80;;;;;;;-0.77;85.80;99862.20;102268;1257;1002962;-69
2023/12/03 07:36:45;;;;;;;47.40;24.70;;;;;;;-0.79;85.93;99857.58;102097;1257;1003004;-69
2023/12/03 07:39:12;;;;;;;50.00;24.00;;;;;;;-0.74;86.16;99865.30;103077;1257;96326;-68
2023/12/03 07:41:42;;;;;;;45.90;23.50;;;;;;;-0.75;85.96;99864.94;102205;1257;1003400;-68
2023/12/03 07:44:09;;;;;;;41.70;21.80;;;;;;;-0.77;85.86;99861.52;103152;1256;96470;-67
2023/12/03 07:46:36;;;;;;;41.60;21.90;;;;;;;-0.74;85.65;99867.67;103183;1257;110231;-68
2023/12/03 07:49:04;;;;;;;40.60;23.10;;;;;;;-0.75;85.45;99868.52;102996;1256;137928;-68
2023/12/03 07:51:31;;;;;;;44.30;23.90;;;;;;;-0.72;85.45;99865.99;103011;1258;96392;-72
2023/12/03 07:53:58;;;;;;;45.90;24.50;;;;;;;-0.69;85.52;99866.88;102211;1260;1003041;-68
2023/12/03 07:56:34;;;;;;;48.60;25.60;;;;;;;-0.64;85.55;99869.64;103095;1257;96473;-69
2023/12/03 07:59:00;;;;;;;50.00;26.40;;;;;;;-0.60;85.56;99874.27;103131;1257;109555;-69
2023/12/03 08:01:27;;;;;;;53.10;27.10;;;;;;;-0.62;85.31;99873.23;102958;1257;110058;-69
2023/12/03 08:03:54;;;;;;;50.50;26.50;;;;;;;-0.59;85.37;99879.39;103186;1257;97287;-69
2023/12/03 08:06:21;;;;;;;49.80;25.80;;;;;;;-0.59;85.20;99878.89;102933;1257;137586;-69
2023/12/03 08:08:48;;;;;;;48.40;25.50;;;;;;;-0.60;85.11;99877.35;103113;1256;96364;-69
2023/12/03 08:11:15;;;;;;;50.00;24.90;;;;;;;-0.63;85.17;99879.04;102300;1257;1002829;-69
2023/12/03 08:13:44;;;;;;;48.60;24.80;;;;;;;-0.59;85.41;99883.16;103057;1260;109026;-69
2023/12/03 08:16:11;;;;;;;49.10;26.70;;;;;;;-0.50;85.39;99885.97;102365;1256;1003427;-69
2023/12/03 08:18:39;;;;;;;54.80;28.20;;;;;;;-0.39;85.33;99891.66;102584;1257;1002548;-69
2023/12/03 08:21:08;;;;;;;49.70;27.70;;;;;;;-0.38;84.81;99895.07;103055;1258;96442;-69
2023/12/03 08:23:35;;;;;;;54.90;28.90;;;;;;;-0.35;84.58;99894.27;103852;1256;138279;-70
2023/12/03 08:26:04;;;;;;;49.30;28.50;;;;;;;-0.32;84.58;99894.45;103091;1257;108347;-69
2023/12/03 08:28:31;;;;;;;54.00;28.50;;;;;;;-0.29;84.36;99896.85;103086;1260;96775;-69
2023/12/03 08:30:58;;;;;;;55.00;28.90;;;;;;;-0.26;84.14;99893.11;102287;1257;1002561;-69
2023/12/03 08:33:25;;;;;;;56.30;29.30;;;;;;;-0.26;83.83;99893.45;102968;1256;97223;-68
2023/12/03 08:35:52;;;;;;;53.30;28.20;;;;;;;-0.25;84.11;99894.82;102870;1257;137450;-69
2023/12/03 08:38:19;;;;;;;52.10;27.00;;;;;;;-0.25;83.91;99902.16;102312;1257;1003261;-68
2023/12/03 08:40:46;;;;;;;55.00;29.00;;;;;;;-0.26;83.85;99901.65;103061;1261;98757;-68
2023/12/03 08:43:14;;;;;;;48.50;27.60;;;;;;;-0.29;83.76;99907.10;102897;1260;138769;-69
2023/12/03 08:45:41;;;;;;;55.40;28.70;;;;;;;-0.31;83.82;99910.68;103199;1256;96459;-69
2023/12/03 08:48:08;;;;;;;52.00;28.60;;;;;;;-0.25;84.19;99911.56;102995;1258;137770;-69
2023/12/03 08:50:35;;;;;;;60.10;29.90;;;;;;;-0.20;84.13;99916.20;103182;1260;106902;-68
2023/12/03 08:53:06;;;;;;;57.30;29.40;;;;;;;-0.18;84.04;99922.38;103104;1260;96662;-68
2023/12/03 08:55:33;;;;;;;56.80;29.10;;;;;;;-0.12;84.31;99929.42;102451;1256;1003510;-69
2023/12/03 08:58:01;;;;;;;52.50;28.60;;;;;;;-0.09;84.02;99928.23;103103;1256;96454;-70
2023/12/03 09:00:28;;;;;;;55.40;29.50;;;;;;;-0.11;83.90;99932.34;103010;1257;137390;-69
2023/12/03 09:02:55;;;;;;;56.90;29.90;;;;;;;-0.09;84.02;99935.08;102950;1260;106928;-70
2023/12/03 09:05:22;;;;;;;52.50;26.30;;;;;;;-0.13;83.75;99937.45;102847;1260;137641;-69
2023/12/03 09:07:49;;;;;;;48.90;26.40;;;;;;;-0.14;83.76;99937.96;103124;1257;107863;-70
2023/12/03 09:10:16;;;;;;;47.90;26.60;;;;;;;-0.16;83.81;99945.98;103150;1259;96447;-70
2023/12/03 09:12:43;;;;;;;42.70;24.80;;;;;;;-0.18;83.81;99947.52;103080;1259;138205;-69
2023/12/03 09:15:12;;;;;;;45.20;25.80;;;;;;;-0.18;84.00;99952.77;103152;1256;107541;-70
2023/12/03 09:17:39;;;;;;;48.00;24.80;;;;;;;-0.18;83.89;99949.55;103355;1259;138351;-70
2023/12/03 09:20:08;;;;;;;42.50;24.10;;;;;;;-0.14;84.08;99950.09;102945;1259;108786;-69
2023/12/03 09:22:35;;;;;;;49.40;27.30;;;;;;;-0.08;84.12;99948.07;103839;1258;96469;-68
2023/12/03 09:25:02;;;;;;;49.40;27.60;;;;;;;-0.01;84.24;99950.68;102919;1256;137963;-69
2023/12/03 09:27:29;;;;;;;55.70;29.70;;;;;;;0.08;84.00;99958.59;103243;1256;107098;-69
2023/12/03 09:29:56;;;;;;;55.80;29.70;;;;;;;0.11;83.80;99956.38;102993;1256;137304;-69
2023/12/03 09:32:23;;;;;;;57.40;30.60;;;;;;;0.08;83.62;99960.64;103085;1256;109054;-71
2023/12/03 09:34:50;;;;;;;61.30;33.10;;;;;;;0.05;83.70;99959.94;102975;1261;96507;-68
2023/12/03 09:37:17;;;;;;;67.00;33.20;;;;;;;0.04;83.74;99961.13;103046;1260;138997;-68
2023/12/03 09:39:44;;;;;;;61.00;31.20;;;;;;;0.04;84.08;99958.05;102397;1256;1003176;-69
2023/12/03 09:42:13;;;;;;;57.80;29.70;;;;;;;0.06;84.20;99958.06;102189;1257;1003201;-70
2023/12/03 09:44:47;;;;;;;58.50;27.80;;;;;;;0.06;84.12;99960.80;103104;1255;107700;-69
2023/12/03 09:47:16;;;;;;;60.10;27.50;;;;;;;0.05;84.25;99959.27;102182;1260;1003184;-70
2023/12/03 09:49:46;;;;;;;50.00;26.20;;;;;;;0.05;84.29;99960.96;103070;1260;110518;-70
2023/12/03 09:52:17;;;;;;;49.70;26.50;;;;;;;0.04;84.41;99961.98;102299;1259;1003642;-70
2023/12/03 09:54:45;;;;;;;54.30;28.40;;;;;;;0.03;84.54;99960.27;102836;1256;153476;-70
2023/12/03 09:57:15;;;;;;;55.30;27.80;;;;;;;-0.01;84.66;99964.16;103085;1256;106756;-70
2023/12/03 09:59:46;;;;;;;52.90;26.90;;;;;;;-0.03;84.79;99968.77;102204;1256;1002956;-70
2023/12/03 10:02:17;;;;;;;53.10;26.90;;;;;;;-0.06;84.91;99962.26;103128;1256;110111;-69
2023/12/03 10:04:44;;;;;;;55.60;26.80;;;;;;;-0.11;85.00;99969.41;103234;1256;106591;-70
2023/12/03 10:07:12;;;;;;;55.80;27.50;;;;;;;-0.15;85.23;99967.52;101419;1256;1003160;-70
2023/12/03 10:09:43;;;;;;;55.70;27.60;;;;;;;-0.18;85.39;99968.84;103093;1256;108270;-71
2023/12/03 10:12:14;;;;;;;55.00;28.00;;;;;;;-0.19;85.50;99971.73;101485;1256;1002989;-72
2023/12/03 10:14:45;;;;;;;56.70;27.90;;;;;;;-0.19;85.82;99972.94;103066;1256;109791;-69
2023/12/03 10:17:18;;;;;;;55.10;26.80;;;;;;;-0.16;86.01;99973.33;102953;1260;138439;-69
2023/12/03 10:19:45;;;;;;;51.80;25.80;;;;;;;-0.13;86.10;99978.64;103009;1256;97166;-70
2023/12/03 10:22:12;;;;;;;51.80;26.30;;;;;;;-0.08;86.21;99979.86;102335;1256;1003042;-69
2023/12/03 10:24:49;;;;;;;49.30;24.60;;;;;;;-0.01;86.29;99983.32;102192;1260;1002900;-70
2023/12/03 10:27:17;;;;;;;50.00;27.00;;;;;;;0.07;86.11;99983.55;102321;1260;1002475;-68
2023/12/03 10:29:46;;;;;;;50.80;26.10;;;;;;;0.14;86.08;99986.64;102891;1256;137981;-67
2023/12/03 10:32:15;;;;;;;48.40;25.70;;;;;;;0.21;86.14;99986.36;103122;1256;97140;-71
2023/12/03 10:34:49;;;;;;;54.90;26.90;;;;;;;0.27;85.93;99990.48;103136;1256;107324;-70
2023/12/03 10:37:17;;;;;;;53.50;27.00;;;;;;;0.30;85.76;99991.36;102946;1257;137439;-69
2023/12/03 10:39:44;;;;;;;51.70;26.30;;;;;;;0.33;85.81;100000.09;103123;1260;109952;-68
2023/12/03 10:42:11;;;;;;;49.70;26.40;;;;;;;0.32;85.46;99997.35;102933;1256;139032;-68
2023/12/03 10:44:40;;;;;;;48.40;24.30;;;;;;;0.36;85.71;100003.20;101653;1260;1002833;-67
2023/12/03 10:47:07;;;;;;;50.00;24.70;;;;;;;0.39;85.68;100000.31;103095;1260;107530;-69
2023/12/03 10:49:36;;;;;;;44.60;23.60;;;;;;;0.43;85.69;100001.17;103131;1256;96476;-69
2023/12/03 10:52:04;;;;;;;45.70;23.70;;;;;;;0.46;85.57;100002.55;103075;1256;109915;-68
2023/12/03 10:54:33;;;;;;;49.70;26.40;;;;;;;0.52;85.62;100003.42;102919;1255;138283;-68
2023/12/03 10:57:02;;;;;;;49.10;26.70;;;;;;;0.56;85.49;100001.25;103161;1256;96444;-68
2023/12/03 10:59:34;;;;;;;53.40;27.30;;;;;;;0.58;85.51;100006.73;102962;1255;137759;-66
2023/12/03 11:02:07;;;;;;;49.80;26.70;;;;;;;0.61;85.48;100009.98;103042;1256;96448;-68
2023/12/03 11:04:41;;;;;;;54.40;29.60;;;;;;;0.63;85.39;100008.63;103091;1256;109459;-67